createdAt,value
2023-04-06T00:01:21.070Z,19.10
2023-04-06T00:03:48.596Z,17.48
2023-04-06T00:06:17.228Z,17.85
2023-04-06T00:08:45.729Z,17.35
2023-04-06T00:11:13.247Z,16.17
2023-04-06T00:13:40.853Z,17.05
2023-04-06T00:16:08.485Z,17.45
2023-04-06T00:18:36.159Z,17.98
2023-04-06T00:21:03.666Z,16.40
2023-04-06T00:23:31.585Z,17.02
2023-04-06T00:25:59.102Z,16.55
2023-04-06T00:28:27.353Z,18.60
2023-04-06T00:30:56.422Z,16.67
2023-04-06T00:33:24.666Z,17.08
2023-04-06T00:35:52.638Z,15.55
2023-04-06T00:38:20.246Z,17.75
2023-04-06T00:40:47.813Z,16.58
2023-04-06T00:43:15.438Z,15.18
2023-04-06T00:45:43.697Z,18.70
2023-04-06T00:48:12.315Z,16.85
2023-04-06T00:50:39.865Z,15.85
2023-04-06T00:53:07.448Z,17.13
2023-04-06T00:55:37.012Z,19.17
2023-04-06T00:58:05.174Z,19.23
2023-04-06T01:00:39.640Z,17.88
2023-04-06T01:03:09.734Z,18.75
2023-04-06T01:05:41.799Z,18.70
2023-04-06T01:08:17.934Z,18.45
2023-04-06T01:10:46.757Z,19.73
2023-04-06T01:13:24.620Z,19.30
2023-04-06T01:15:55.535Z,17.92
2023-04-06T01:18:31.166Z,19.13
2023-04-06T01:21:16.756Z,20.58
2023-04-06T01:24:04.708Z,19.27
2023-04-06T01:26:42.710Z,18.13
2023-04-06T01:29:11.457Z,22.77
2023-04-06T01:31:39.260Z,20.17
2023-04-06T01:34:06.868Z,20.00
2023-04-06T01:36:34.370Z,19.80
2023-04-06T01:39:21.255Z,19.33
2023-04-06T01:41:48.864Z,18.58
2023-04-06T01:44:21.200Z,19.45
2023-04-06T01:46:55.570Z,19.48
2023-04-06T01:49:24.133Z,21.27
2023-04-06T01:51:55.568Z,20.13
2023-04-06T01:54:23.586Z,22.35
2023-04-06T01:57:13.222Z,20.55
2023-04-06T02:00:03.801Z,21.00
2023-04-06T02:02:49.369Z,20.40
2023-04-06T02:05:22.716Z,24.30
2023-04-06T02:07:52.748Z,21.80
2023-04-06T02:10:28.596Z,21.73
2023-04-06T02:12:59.910Z,20.80
2023-04-06T02:15:28.984Z,20.77
2023-04-06T02:17:56.625Z,22.77
2023-04-06T02:20:26.252Z,20.15
2023-04-06T02:22:53.757Z,22.20
2023-04-06T02:25:23.066Z,20.80
2023-04-06T02:27:50.570Z,20.60
2023-04-06T02:30:18.133Z,21.33
2023-04-06T02:32:45.951Z,20.33
2023-04-06T02:35:14.473Z,22.13
2023-04-06T02:37:42.108Z,22.98
2023-04-06T02:40:09.895Z,19.83
2023-04-06T02:42:37.393Z,22.40
2023-04-06T02:45:06.636Z,22.02
2023-04-06T02:47:39.852Z,22.70
2023-04-06T02:50:07.732Z,22.55
2023-04-06T02:52:40.882Z,24.75
2023-04-06T02:55:10.160Z,20.35
2023-04-06T02:57:37.726Z,21.58
2023-04-06T03:00:05.692Z,20.30
2023-04-06T03:02:40.038Z,22.95
2023-04-06T03:05:11.590Z,26.23
2023-04-06T03:07:42.898Z,24.48
2023-04-06T03:10:16.254Z,21.67
2023-04-06T03:12:46.188Z,25.15
2023-04-06T03:15:36.437Z,24.77
2023-04-06T03:18:13.800Z,22.42
2023-04-06T03:20:46.005Z,22.08
2023-04-06T03:23:15.528Z,22.00
2023-04-06T03:25:44.415Z,23.23
2023-04-06T03:28:17.177Z,22.20
2023-04-06T03:30:57.384Z,23.15
2023-04-06T03:33:57.058Z,22.40
2023-04-06T03:36:31.300Z,22.63
2023-04-06T03:38:59.612Z,23.23
2023-04-06T03:41:27.458Z,22.98
2023-04-06T03:44:03.726Z,24.75
2023-04-06T03:46:31.397Z,23.52
2023-04-06T03:49:00.259Z,22.15
2023-04-06T03:51:28.958Z,23.52
2023-04-06T03:53:56.386Z,38.10
2023-04-06T03:56:23.895Z,22.55
2023-04-06T03:58:52.421Z,24.13
2023-04-06T04:01:22.085Z,24.73
2023-04-06T04:03:51.545Z,22.25
2023-04-06T04:06:19.481Z,23.27
2023-04-06T04:08:47.256Z,24.08
2023-04-06T04:11:16.874Z,22.08
2023-04-06T04:13:48.166Z,22.10
2023-04-06T04:16:15.830Z,24.30
2023-04-06T04:18:44.809Z,22.77
2023-04-06T04:21:12.453Z,22.67
2023-04-06T04:23:40.078Z,24.10
2023-04-06T04:26:07.581Z,23.38
2023-04-06T04:28:35.975Z,22.48
2023-04-06T04:31:03.450Z,23.42
2023-04-06T04:33:34.497Z,23.42
2023-04-06T04:36:06.020Z,23.25
2023-04-06T04:38:39.540Z,25.52
2023-04-06T04:41:07.174Z,22.50
2023-04-06T04:43:37.499Z,21.77
2023-04-06T04:46:06.019Z,29.00
2023-04-06T04:48:41.872Z,23.88
2023-04-06T04:51:09.949Z,23.98
2023-04-06T04:53:54.370Z,26.15
2023-04-06T04:56:26.374Z,26.23
2023-04-06T04:58:59.203Z,22.83
2023-04-06T05:01:30.296Z,20.85
2023-04-06T05:04:02.461Z,22.02
2023-04-06T05:06:31.013Z,23.83
2023-04-06T05:08:59.359Z,22.02
2023-04-06T05:11:27.935Z,20.10
2023-04-06T05:14:01.893Z,20.27
2023-04-06T05:16:30.037Z,24.65
2023-04-06T05:18:57.911Z,22.58
2023-04-06T05:21:31.409Z,23.63
2023-04-06T05:24:05.757Z,20.85
2023-04-06T05:26:34.603Z,21.10
2023-04-06T05:29:08.561Z,24.30
2023-04-06T05:31:38.573Z,26.95
2023-04-06T05:34:06.311Z,21.65
2023-04-06T05:36:37.276Z,22.58
2023-04-06T05:39:11.115Z,20.63
2023-04-06T05:41:46.194Z,19.85
2023-04-06T05:44:15.249Z,21.40
2023-04-06T05:46:46.496Z,18.88
2023-04-06T05:49:17.454Z,21.60
2023-04-06T05:51:45.194Z,21.73
2023-04-06T05:54:12.650Z,19.00
2023-04-06T05:56:41.450Z,21.83
2023-04-06T05:59:12.371Z,19.45
2023-04-06T06:01:41.369Z,19.27
2023-04-06T06:04:09.069Z,19.90
2023-04-06T06:06:39.541Z,17.77
2023-04-06T06:09:19.237Z,17.02
2023-04-06T06:11:57.588Z,23.35
2023-04-06T06:14:29.630Z,17.33
2023-04-06T06:16:57.657Z,18.85
2023-04-06T06:19:25.290Z,19.42
2023-04-06T06:21:56.482Z,19.15
2023-04-06T06:24:24.277Z,20.88
2023-04-06T06:26:52.294Z,18.02
2023-04-06T06:29:25.388Z,17.70
2023-04-06T06:31:52.971Z,17.90
2023-04-06T06:34:21.532Z,19.30
2023-04-06T06:36:51.615Z,17.60
2023-04-06T06:39:21.301Z,20.40
2023-04-06T06:41:50.576Z,16.73
2023-04-06T06:44:22.940Z,16.77
2023-04-06T06:46:51.406Z,16.13
2023-04-06T06:49:19.606Z,19.45
2023-04-06T06:51:47.560Z,19.95
2023-04-06T06:54:15.130Z,21.45
2023-04-06T06:56:42.673Z,20.05
2023-04-06T06:59:10.679Z,18.35
2023-04-06T07:01:38.968Z,41.85
2023-04-06T07:04:06.585Z,17.52
2023-04-06T07:06:34.253Z,19.85
2023-04-06T07:09:01.750Z,19.90
2023-04-06T07:11:29.283Z,18.52
2023-04-06T07:13:57.106Z,15.88
2023-04-06T07:16:24.735Z,17.67
2023-04-06T07:18:52.322Z,17.33
2023-04-06T07:21:20.385Z,17.73
2023-04-06T07:23:49.232Z,21.42
2023-04-06T07:26:17.736Z,15.70
2023-04-06T07:28:45.346Z,16.05
2023-04-06T07:31:13.909Z,16.70
2023-04-06T07:33:41.525Z,16.67
2023-04-06T07:36:09.191Z,18.02
2023-04-06T07:38:36.765Z,20.33
2023-04-06T07:41:05.120Z,19.80
2023-04-06T07:43:34.106Z,20.33
2023-04-06T07:46:01.694Z,15.85
2023-04-06T07:48:29.393Z,17.15
2023-04-06T07:51:04.005Z,21.23
2023-04-06T07:53:33.070Z,16.52
2023-04-06T07:56:00.848Z,18.65
2023-04-06T07:58:28.376Z,15.85
2023-04-06T08:00:56.458Z,19.40
2023-04-06T08:03:26.741Z,18.63
2023-04-06T08:05:54.551Z,18.50
2023-04-06T08:08:22.411Z,18.45
2023-04-06T08:10:50.518Z,24.00
2023-04-06T08:13:18.050Z,19.58
2023-04-06T08:15:45.854Z,15.57
2023-04-06T08:18:13.600Z,17.70
2023-04-06T08:20:41.485Z,17.65
2023-04-06T08:23:10.493Z,23.42
2023-04-06T08:25:38.240Z,16.92
2023-04-06T08:28:05.885Z,17.90
2023-04-06T08:30:33.475Z,18.45
2023-04-06T08:33:01.288Z,15.50
2023-04-06T08:35:29.188Z,24.30
2023-04-06T08:37:56.721Z,18.02
2023-04-06T08:40:24.233Z,16.33
2023-04-06T08:42:54.058Z,20.52
2023-04-06T08:45:22.434Z,14.20
2023-04-06T08:47:53.673Z,17.25
2023-04-06T08:50:21.348Z,16.35
2023-04-06T08:52:49.442Z,16.55
2023-04-06T08:55:17.834Z,14.68
2023-04-06T08:57:45.935Z,19.90
2023-04-06T09:00:13.731Z,13.95
2023-04-06T09:02:42.197Z,17.00
2023-04-06T09:05:10.970Z,16.83
2023-04-06T09:07:38.956Z,16.67
2023-04-06T09:10:07.464Z,19.33
2023-04-06T09:12:35.538Z,14.38
2023-04-06T09:15:03.598Z,13.95
2023-04-06T09:17:33.775Z,13.73
2023-04-06T09:20:02.042Z,17.10
2023-04-06T09:22:37.098Z,15.48
2023-04-06T09:27:36.133Z,15.93
2023-04-06T09:30:07.014Z,21.27
2023-04-06T09:32:34.543Z,16.10
2023-04-06T09:35:08.942Z,14.95
2023-04-06T09:37:36.668Z,18.52
2023-04-06T09:40:06.941Z,16.38
2023-04-06T09:42:35.310Z,15.38
2023-04-06T09:45:03.357Z,15.65
2023-04-06T09:47:32.106Z,21.55
2023-04-06T09:50:00.074Z,16.13
2023-04-06T09:52:35.008Z,14.88
2023-04-06T09:55:04.738Z,17.30
2023-04-06T09:57:51.453Z,14.27
2023-04-06T10:00:20.338Z,15.43
2023-04-06T10:02:48.200Z,19.60
2023-04-06T10:05:22.175Z,14.45
2023-04-06T10:10:24.713Z,13.73
2023-04-06T10:12:52.176Z,15.48
2023-04-06T10:15:21.931Z,11.73
2023-04-06T10:17:50.481Z,15.40
2023-04-06T10:20:22.780Z,14.48
2023-04-06T10:22:53.736Z,12.23
2023-04-06T10:25:34.338Z,12.98
2023-04-06T10:28:13.239Z,16.10
2023-04-06T10:30:44.677Z,10.93
2023-04-06T10:33:19.916Z,22.55
2023-04-06T10:35:47.567Z,15.50
2023-04-06T10:38:15.585Z,16.13
2023-04-06T10:40:44.250Z,13.18
2023-04-06T10:43:12.958Z,10.57
2023-04-06T10:45:41.258Z,14.52
2023-04-06T10:48:16.198Z,11.40
2023-04-06T10:50:45.917Z,11.90
2023-04-06T10:53:13.424Z,14.95
2023-04-06T10:55:42.254Z,13.93
2023-04-06T10:58:09.931Z,14.20
2023-04-06T11:00:49.492Z,14.27
2023-04-06T11:03:18.955Z,13.45
2023-04-06T11:05:48.031Z,12.32
2023-04-06T11:08:34.929Z,11.55
2023-04-06T11:11:06.733Z,10.95
2023-04-06T11:13:41.483Z,13.60
2023-04-06T11:16:09.126Z,12.10
2023-04-06T11:18:36.881Z,12.45
2023-04-06T11:21:04.599Z,11.38
2023-04-06T11:23:32.088Z,10.13
2023-04-06T11:25:59.631Z,16.55
2023-04-06T11:28:27.158Z,13.85
2023-04-06T11:30:54.713Z,12.48
2023-04-06T11:33:25.988Z,13.93
2023-04-06T11:35:53.601Z,10.98
2023-04-06T11:38:21.944Z,10.07
2023-04-06T11:40:54.502Z,12.13
2023-04-06T11:43:28.539Z,11.63
2023-04-06T11:46:02.244Z,13.45
2023-04-06T11:48:30.181Z,10.20
2023-04-06T11:50:58.927Z,9.43
2023-04-06T11:53:26.577Z,14.00
2023-04-06T11:55:54.038Z,10.27
2023-04-06T11:58:21.611Z,10.27
2023-04-06T12:00:49.159Z,11.10
2023-04-06T12:03:16.851Z,7.38
2023-04-06T12:05:45.094Z,8.98
2023-04-06T12:08:12.585Z,8.45
2023-04-06T12:10:40.024Z,8.60
2023-04-06T12:13:07.624Z,11.65
2023-04-06T12:15:35.125Z,10.55
2023-04-06T12:18:02.813Z,7.22
2023-04-06T12:20:30.896Z,11.68
2023-04-06T12:22:58.533Z,7.38
2023-04-06T12:25:26.010Z,8.13
2023-04-06T12:27:53.557Z,9.60
2023-04-06T12:30:21.185Z,9.95
2023-04-06T12:32:51.113Z,9.10
2023-04-06T12:35:18.943Z,8.35
2023-04-06T12:37:47.100Z,9.25
2023-04-06T12:40:15.965Z,10.52
2023-04-06T12:42:43.501Z,10.65
2023-04-06T12:45:11.257Z,11.52
2023-04-06T12:47:38.904Z,8.52
2023-04-06T12:50:07.088Z,7.72
2023-04-06T12:52:36.299Z,9.23
2023-04-06T12:55:04.444Z,9.82
2023-04-06T12:57:32.071Z,15.30
2023-04-06T12:59:59.730Z,8.77
2023-04-06T13:02:28.214Z,15.50
2023-04-06T13:04:55.959Z,9.23
2023-04-06T13:07:23.765Z,13.45
2023-04-06T13:09:51.193Z,8.82
2023-04-06T13:12:18.771Z,8.00
2023-04-06T13:14:51.878Z,8.68
2023-04-06T13:17:19.390Z,9.48
2023-04-06T13:19:46.805Z,10.30
2023-04-06T13:22:14.306Z,6.05
2023-04-06T13:24:41.804Z,7.60
2023-04-06T13:27:09.294Z,6.13
2023-04-06T13:29:36.935Z,6.57
2023-04-06T13:32:04.393Z,7.30
2023-04-06T13:34:31.956Z,8.52
2023-04-06T13:36:59.454Z,5.75
2023-04-06T13:39:27.356Z,8.23
2023-04-06T13:41:57.739Z,9.50
2023-04-06T13:44:25.816Z,6.00
2023-04-06T13:46:54.734Z,6.50
2023-04-06T13:49:22.727Z,8.30
2023-04-06T13:51:50.397Z,8.48
2023-04-06T13:54:17.858Z,8.43
2023-04-06T13:56:45.455Z,10.75
2023-04-06T13:59:13.056Z,11.15
2023-04-06T14:01:40.853Z,7.18
2023-04-06T14:04:08.578Z,9.43
2023-04-06T14:06:36.324Z,10.18
2023-04-06T14:09:03.909Z,8.65
2023-04-06T14:11:31.422Z,12.00
2023-04-06T14:13:58.999Z,7.63
2023-04-06T14:16:26.677Z,10.18
2023-04-06T14:18:54.290Z,7.45
2023-04-06T14:21:21.788Z,7.88
2023-04-06T14:23:49.350Z,6.95
2023-04-06T14:26:17.714Z,7.30
2023-04-06T14:28:45.476Z,6.85
2023-04-06T14:31:14.203Z,9.35
2023-04-06T14:33:41.830Z,7.10
2023-04-06T14:36:10.099Z,6.18
2023-04-06T14:38:37.568Z,8.05
2023-04-06T14:41:05.056Z,9.98
2023-04-06T14:43:32.457Z,8.20
2023-04-06T14:46:03.465Z,8.18
2023-04-06T14:48:31.003Z,9.00
2023-04-06T14:50:59.018Z,7.88
2023-04-06T14:53:27.353Z,6.03
2023-04-06T14:55:54.999Z,8.35
2023-04-06T14:58:22.978Z,9.93
2023-04-06T15:00:51.276Z,9.45
2023-04-06T15:03:18.866Z,10.65
2023-04-06T15:05:46.480Z,6.32
2023-04-06T15:08:16.099Z,10.07
2023-04-06T15:10:43.633Z,11.35
2023-04-06T15:13:11.184Z,7.85
2023-04-06T15:15:38.951Z,7.95
2023-04-06T15:18:06.757Z,8.40
2023-04-06T15:20:34.175Z,7.00
2023-04-06T15:23:02.866Z,5.75
2023-04-06T15:25:30.686Z,5.32
2023-04-06T15:28:00.341Z,7.57
2023-04-06T15:30:28.800Z,5.50
2023-04-06T15:33:04.584Z,6.97
2023-04-06T15:35:32.435Z,9.00
2023-04-06T15:37:59.906Z,7.28
2023-04-06T15:40:27.422Z,6.97
2023-04-06T15:42:54.895Z,6.47
2023-04-06T15:45:22.382Z,7.63
2023-04-06T15:47:49.910Z,9.30
2023-04-06T15:50:18.791Z,9.15
2023-04-06T15:52:46.368Z,5.68
2023-04-06T15:55:13.969Z,8.38
2023-04-06T15:57:41.668Z,7.75
2023-04-06T16:00:09.910Z,8.60
2023-04-06T16:02:37.691Z,6.15
2023-04-06T16:05:05.604Z,11.00
2023-04-06T16:07:34.731Z,8.32
2023-04-06T16:10:02.378Z,15.20
2023-04-06T16:12:30.006Z,6.18
2023-04-06T16:14:57.401Z,5.90
2023-04-06T16:17:24.925Z,7.40
2023-04-06T16:19:52.357Z,10.38
2023-04-06T16:22:20.923Z,9.23
2023-04-06T16:24:48.301Z,7.88
2023-04-06T16:27:15.918Z,9.35
2023-04-06T16:29:43.976Z,10.68
2023-04-06T16:32:12.259Z,8.95
2023-04-06T16:34:39.889Z,6.30
2023-04-06T16:37:07.375Z,5.70
2023-04-06T16:39:34.917Z,6.78
2023-04-06T16:42:02.946Z,7.50
2023-04-06T16:44:31.157Z,8.15
2023-04-06T16:46:58.816Z,6.32
2023-04-06T16:49:26.257Z,7.32
2023-04-06T16:51:53.709Z,6.85
2023-04-06T16:54:21.259Z,11.93
2023-04-06T16:56:48.854Z,13.20
2023-04-06T16:59:16.309Z,9.82
2023-04-06T17:01:44.066Z,11.85
2023-04-06T17:04:11.802Z,11.93
2023-04-06T17:06:39.410Z,8.82
2023-04-06T17:09:07.039Z,10.95
2023-04-06T17:11:46.106Z,8.93
2023-04-06T17:14:14.624Z,11.05
2023-04-06T17:16:42.279Z,7.28
2023-04-06T17:19:09.738Z,9.85
2023-04-06T17:21:37.228Z,7.68
2023-04-06T17:24:04.834Z,8.32
2023-04-06T17:26:32.448Z,8.65
2023-04-06T17:28:59.968Z,7.50
2023-04-06T17:31:28.111Z,6.43
2023-04-06T17:33:55.778Z,8.52
2023-04-06T17:36:24.370Z,7.63
2023-04-06T17:38:51.960Z,8.23
2023-04-06T17:41:19.433Z,13.77
2023-04-06T17:43:48.218Z,11.57
2023-04-06T17:46:16.073Z,8.98
2023-04-06T17:48:44.055Z,8.10
2023-04-06T17:51:14.498Z,9.27
2023-04-06T17:53:41.920Z,10.02
2023-04-06T17:56:09.381Z,6.78
2023-04-06T17:58:37.035Z,7.30
2023-04-06T18:01:08.715Z,6.60
2023-04-06T18:03:36.312Z,8.20
2023-04-06T18:06:13.477Z,11.13
2023-04-06T18:08:41.804Z,9.45
2023-04-06T18:11:15.073Z,12.07
2023-04-06T18:13:42.562Z,8.50
2023-04-06T18:16:10.066Z,12.88
2023-04-06T18:18:39.065Z,10.05
2023-04-06T18:21:07.389Z,10.35
2023-04-06T18:23:38.397Z,8.05
2023-04-06T18:26:06.819Z,8.63
2023-04-06T18:28:34.647Z,10.68
2023-04-06T18:31:02.582Z,9.85
2023-04-06T18:33:32.355Z,8.38
2023-04-06T18:36:00.070Z,9.40
2023-04-06T18:38:27.747Z,8.77
2023-04-06T18:40:55.391Z,10.40
2023-04-06T18:43:22.895Z,8.52
2023-04-06T18:45:52.704Z,9.68
2023-04-06T18:48:20.518Z,8.85
2023-04-06T18:50:54.782Z,9.10
2023-04-06T18:53:22.606Z,9.40
2023-04-06T18:55:51.612Z,9.65
2023-04-06T18:58:19.513Z,9.77
2023-04-06T19:00:46.996Z,8.55
2023-04-06T19:03:14.622Z,10.00
2023-04-06T19:05:42.606Z,10.32
2023-04-06T19:08:10.496Z,13.20
2023-04-06T19:10:38.645Z,8.98
2023-04-06T19:13:06.223Z,9.60
2023-04-06T19:15:33.698Z,9.77
2023-04-06T19:18:01.320Z,9.48
2023-04-06T19:20:28.850Z,12.13
2023-04-06T19:22:57.366Z,11.43
2023-04-06T19:25:25.040Z,19.95
2023-04-06T19:27:54.693Z,10.23
2023-04-06T19:30:22.328Z,10.43
2023-04-06T19:32:50.050Z,10.27
2023-04-06T19:35:17.550Z,10.98
2023-04-06T19:37:45.464Z,12.85
2023-04-06T19:40:13.126Z,12.70
2023-04-06T19:42:40.597Z,10.70
2023-04-06T19:45:08.440Z,12.52
2023-04-06T19:47:36.053Z,16.45
2023-04-06T19:50:04.553Z,15.00
2023-04-06T19:52:32.877Z,17.02
2023-04-06T19:55:00.851Z,13.38
2023-04-06T19:57:30.886Z,11.23
2023-04-06T19:59:58.494Z,13.02
2023-04-06T20:02:26.294Z,14.55
2023-04-06T20:04:57.034Z,12.38
2023-04-06T20:07:25.766Z,12.85
2023-04-06T20:09:53.192Z,11.63
2023-04-06T20:12:20.749Z,12.85
2023-04-06T20:14:48.209Z,11.02
2023-04-06T20:17:15.916Z,14.15
2023-04-06T20:19:43.283Z,12.82
2023-04-06T20:22:11.081Z,13.18
2023-04-06T20:24:38.484Z,16.77
2023-04-06T20:27:06.319Z,13.95
2023-04-06T20:29:33.883Z,13.85
2023-04-06T20:32:01.599Z,14.07
2023-04-06T20:34:29.279Z,11.88
2023-04-06T20:36:57.089Z,11.32
2023-04-06T20:39:24.984Z,11.48
2023-04-06T20:41:52.828Z,13.02
2023-04-06T20:44:26.277Z,11.80
2023-04-06T20:46:54.299Z,12.82
2023-04-06T20:49:24.733Z,13.57
2023-04-06T20:51:52.359Z,13.60
2023-04-06T20:54:20.007Z,12.35
2023-04-06T20:56:47.691Z,10.52
2023-04-06T20:59:15.186Z,13.10
2023-04-06T21:01:42.727Z,12.98
2023-04-06T21:04:10.707Z,13.23
2023-04-06T21:06:38.324Z,13.05
2023-04-06T21:09:05.937Z,12.50
2023-04-06T21:11:33.465Z,13.00
2023-04-06T21:14:01.010Z,13.00
2023-04-06T21:16:28.864Z,14.63
2023-04-06T21:18:56.424Z,14.07
2023-04-06T21:21:23.953Z,13.23
2023-04-06T21:23:52.998Z,12.77
2023-04-06T21:26:20.724Z,14.70
2023-04-06T21:28:48.247Z,15.32
2023-04-06T21:31:16.707Z,11.73
2023-04-06T21:33:44.184Z,15.65
2023-04-06T21:36:11.650Z,15.15
2023-04-06T21:38:39.065Z,13.52
2023-04-06T21:41:07.379Z,13.88
2023-04-06T21:43:35.775Z,15.30
2023-04-06T21:46:03.447Z,13.88
2023-04-06T21:48:30.833Z,12.02
2023-04-06T21:50:58.330Z,14.10
2023-04-06T21:53:25.717Z,13.15
2023-04-06T21:55:53.190Z,14.77
2023-04-06T21:58:21.564Z,14.60
2023-04-06T22:00:49.144Z,14.23
2023-04-06T22:03:16.855Z,13.88
2023-04-06T22:05:44.418Z,12.00
2023-04-06T22:08:17.910Z,15.02
2023-04-06T22:10:53.269Z,14.18
2023-04-06T22:13:20.674Z,12.73
2023-04-06T22:15:48.155Z,14.88
2023-04-06T22:18:15.665Z,14.68
2023-04-06T22:20:43.191Z,13.93
2023-04-06T22:23:11.080Z,12.50
2023-04-06T22:25:38.610Z,16.42
2023-04-06T22:28:06.851Z,13.82
2023-04-06T22:30:34.354Z,17.58
2023-04-06T22:33:01.797Z,15.32
2023-04-06T22:35:29.292Z,14.23
2023-04-06T22:37:57.079Z,15.00
2023-04-06T22:40:24.552Z,16.40
2023-04-06T22:42:52.024Z,14.48
2023-04-06T22:45:19.547Z,13.35
2023-04-06T22:47:47.182Z,15.07
2023-04-06T22:50:16.008Z,13.82
2023-04-06T22:52:43.373Z,14.55
2023-04-06T22:55:10.906Z,13.40
2023-04-06T22:57:38.368Z,15.80
2023-04-06T23:00:06.444Z,15.45
2023-04-06T23:02:34.089Z,14.90
2023-04-06T23:05:02.244Z,15.05
2023-04-06T23:07:31.914Z,16.42
2023-04-06T23:10:00.046Z,14.63
2023-04-06T23:12:27.435Z,14.80
2023-04-06T23:14:54.898Z,13.85
2023-04-06T23:17:22.363Z,15.70
2023-04-06T23:19:49.942Z,14.27
2023-04-06T23:22:17.394Z,14.32
2023-04-06T23:24:44.908Z,15.32
2023-04-06T23:27:12.297Z,14.00
2023-04-06T23:29:39.998Z,14.80
2023-04-06T23:32:07.620Z,17.30
2023-04-06T23:34:35.195Z,14.38
2023-04-06T23:37:03.261Z,14.77
2023-04-06T23:39:31.449Z,15.25
2023-04-06T23:41:58.931Z,15.48
2023-04-06T23:44:29.745Z,13.90
2023-04-06T23:46:57.468Z,14.52
2023-04-06T23:49:25.032Z,16.52
2023-04-06T23:51:52.494Z,16.77
2023-04-06T23:54:19.958Z,15.98
2023-04-06T23:56:47.531Z,15.65
2023-04-06T23:59:15.015Z,15.07
